createdAt,value
2022-10-31T00:09:20.557Z,1024.9
2022-10-31T00:24:36.521Z,1024.82
2022-10-31T00:39:53.531Z,1024.82
2022-10-31T00:55:10.461Z,1024.79
2022-10-31T01:10:27.436Z,1024.71
2022-10-31T01:25:43.432Z,1024.71
2022-10-31T01:40:59.434Z,1024.54
2022-10-31T01:56:15.381Z,1024.49
2022-10-31T02:11:32.332Z,1024.38
2022-10-31T02:26:48.333Z,1024.3
2022-10-31T02:42:05.341Z,1024.22
2022-10-31T02:57:22.270Z,1024.17
2022-10-31T03:12:41.031Z,1024.09
2022-10-31T03:27:55.305Z,1024.22
2022-10-31T03:43:11.238Z,1024.33
2022-10-31T03:58:27.221Z,1024.14
2022-10-31T04:13:44.177Z,1024.17
2022-10-31T04:29:01.176Z,1024.04
2022-10-31T04:44:18.109Z,1023.96
2022-10-31T04:59:34.145Z,1024.01
2022-10-31T05:14:51.091Z,1024.04
2022-10-31T05:30:07.042Z,1024.12
2022-10-31T05:30:47.889Z,1024.12
2022-10-31T05:45:24.026Z,1024.23
2022-10-31T06:00:40.001Z,1024.13
2022-10-31T06:15:56.956Z,1024.29
2022-10-31T06:31:12.936Z,1024.29
2022-10-31T06:46:29.922Z,1024.35
2022-10-31T07:01:47.063Z,1024.32
2022-10-31T07:17:03.913Z,1024.06
2022-10-31T07:32:19.846Z,1023.96
2022-10-31T07:47:35.814Z,1023.92
2022-10-31T08:02:51.792Z,1024.02
2022-10-31T08:18:08.799Z,1023.91
2022-10-31T08:33:25.743Z,1023.74
2022-10-31T08:48:42.739Z,1023.67
2022-10-31T09:03:58.678Z,1023.6
2022-10-31T09:19:15.710Z,1023.47
2022-10-31T09:34:31.635Z,1023.52
2022-10-31T09:49:47.744Z,1023.46
2022-10-31T10:05:03.596Z,1023.48
2022-10-31T10:20:22.591Z,1023.41
2022-10-31T10:35:38.542Z,1022.94
2022-10-31T10:50:54.515Z,1023.11
2022-10-31T11:06:11.487Z,1023.02
2022-10-31T11:21:29.455Z,1022.75
2022-10-31T11:36:46.430Z,1022.36
2022-10-31T11:52:02.378Z,1022.11
2022-10-31T12:07:18.350Z,1021.75
2022-10-31T12:22:35.331Z,1021.49
2022-10-31T12:37:51.291Z,1021.17
2022-10-31T12:53:08.303Z,1021.08
2022-10-31T13:08:25.245Z,1020.74
2022-10-31T13:23:51.028Z,1020.57
2022-10-31T13:38:58.180Z,1020.36
2022-10-31T13:54:14.112Z,1020.42
2022-10-31T14:09:30.100Z,1020.18
2022-10-31T14:24:47.047Z,1020.3
2022-10-31T14:40:03.043Z,1020.4
2022-10-31T14:55:19.982Z,1020.27
2022-10-31T15:10:37.004Z,1020.09
2022-10-31T15:25:53.917Z,1020.15
2022-10-31T15:41:09.929Z,1019.87
2022-10-31T15:56:25.863Z,1019.83
2022-10-31T16:11:41.874Z,1019.73
2022-10-31T16:26:58.806Z,1019.72
2022-10-31T16:42:14.868Z,1020.08
2022-10-31T16:57:31.756Z,1020.2
2022-10-31T17:12:48.708Z,1020.56
2022-10-31T17:28:05.731Z,1020.49
2022-10-31T17:43:21.659Z,1020.63
2022-10-31T17:58:37.645Z,1020.71
2022-10-31T18:13:53.605Z,1020.85
2022-10-31T18:29:10.613Z,1020.87
2022-10-31T18:44:27.534Z,1020.91
2022-10-31T18:59:44.551Z,1021.05
2022-10-31T19:15:01.468Z,1020.84
2022-10-31T19:30:17.459Z,1020.93
2022-10-31T19:45:33.422Z,1020.87
2022-10-31T20:00:49.529Z,1020.93
2022-10-31T20:16:06.380Z,1021.02
2022-10-31T20:31:22.343Z,1021.17
2022-10-31T20:46:39.314Z,1021.26
2022-10-31T21:01:56.409Z,1021.24
2022-10-31T21:17:13.269Z,1021.36
2022-10-31T21:32:29.225Z,1021.19
2022-10-31T21:47:45.203Z,1020.91
2022-10-31T22:03:01.153Z,1020.93
2022-10-31T22:18:18.162Z,1020.89
2022-10-31T22:33:35.096Z,1021.09
2022-10-31T22:48:52.121Z,1021.03
2022-10-31T23:04:09.021Z,1021.08
2022-10-31T23:19:26.034Z,1021.16
2022-10-31T23:34:41.987Z,1021.11
2022-10-31T23:49:57.971Z,1021.14
